createdAt,value
2018-05-02T00:02:25.921Z,11.39
2018-05-02T00:04:54.215Z,11.34
2018-05-02T00:07:22.548Z,11.35
2018-05-02T00:09:51.021Z,11.30
2018-05-02T00:12:19.440Z,11.10
2018-05-02T00:14:47.940Z,11.10
2018-05-02T00:17:16.277Z,11.07
2018-05-02T00:19:44.575Z,11.14
2018-05-02T00:22:12.865Z,11.19
2018-05-02T00:24:41.182Z,11.16
2018-05-02T00:27:10.261Z,11.16
2018-05-02T00:29:38.627Z,11.17
2018-05-02T00:32:07.916Z,11.18
2018-05-02T00:34:36.242Z,11.21
2018-05-02T00:37:04.635Z,11.20
2018-05-02T00:39:32.938Z,11.21
2018-05-02T00:42:01.507Z,11.16
2018-05-02T00:44:29.823Z,11.08
2018-05-02T00:46:58.220Z,10.95
2018-05-02T00:49:27.401Z,10.88
2018-05-02T00:51:55.702Z,10.83
2018-05-02T00:54:24.798Z,10.80
2018-05-02T00:56:54.014Z,10.83
2018-05-02T00:59:22.302Z,10.78
2018-05-02T01:01:50.608Z,10.79
2018-05-02T01:04:19.021Z,10.83
2018-05-02T01:06:48.111Z,10.85
2018-05-02T01:09:17.957Z,10.82
2018-05-02T01:11:46.352Z,10.79
2018-05-02T01:14:14.672Z,10.75
2018-05-02T01:16:43.080Z,10.71
2018-05-02T01:19:11.421Z,10.64
2018-05-02T01:21:39.732Z,10.68
2018-05-02T01:24:08.186Z,10.68
2018-05-02T01:26:36.771Z,10.68
2018-05-02T01:29:05.071Z,10.70
2018-05-02T01:31:34.318Z,10.71
2018-05-02T01:34:02.602Z,10.71
2018-05-02T01:36:30.965Z,10.68
2018-05-02T01:38:59.299Z,10.71
2018-05-02T01:41:28.361Z,10.65
2018-05-02T01:43:57.506Z,10.63
2018-05-02T01:46:25.857Z,10.61
2018-05-02T01:49:12.587Z,10.62
2018-05-02T01:51:40.852Z,10.58
2018-05-02T01:54:11.055Z,10.54
2018-05-02T01:56:40.135Z,10.54
2018-05-02T01:59:08.415Z,10.55
2018-05-02T02:01:36.825Z,10.60
2018-05-02T02:04:05.876Z,10.62
2018-05-02T02:06:34.257Z,10.57
2018-05-02T02:09:02.671Z,10.59
2018-05-02T02:11:30.982Z,10.50
2018-05-02T02:13:59.237Z,10.48
2018-05-02T02:16:27.653Z,10.41
2018-05-02T02:18:55.931Z,10.28
2018-05-02T02:21:24.392Z,10.13
2018-05-02T02:23:52.718Z,10.18
2018-05-02T02:26:21.037Z,10.23
2018-05-02T02:28:49.450Z,10.30
2018-05-02T02:31:17.872Z,10.33
2018-05-02T02:33:46.987Z,10.22
2018-05-02T02:36:15.275Z,10.23
2018-05-02T02:38:43.633Z,10.14
2018-05-02T02:41:12.034Z,10.02
2018-05-02T02:43:40.547Z,10.06
2018-05-02T02:46:08.963Z,10.04
2018-05-02T02:48:38.116Z,10.11
2018-05-02T02:51:06.517Z,10.08
2018-05-02T02:53:34.808Z,10.09
2018-05-02T02:56:03.195Z,10.15
2018-05-02T02:58:31.557Z,10.09
2018-05-02T03:01:00.101Z,10.03
2018-05-02T03:03:28.658Z,10.02
2018-05-02T03:05:56.974Z,10.05
2018-05-02T03:08:25.280Z,10.07
2018-05-02T03:10:54.478Z,10.00
2018-05-02T03:13:23.552Z,9.93
2018-05-02T03:15:51.941Z,9.94
2018-05-02T03:18:20.264Z,9.92
2018-05-02T03:20:48.962Z,9.96
2018-05-02T03:23:17.486Z,9.97
2018-05-02T03:25:45.826Z,9.98
2018-05-02T03:28:14.106Z,9.91
2018-05-02T03:30:42.418Z,9.91
2018-05-02T03:33:11.511Z,9.92
2018-05-02T03:35:39.803Z,9.92
2018-05-02T03:38:08.838Z,9.91
2018-05-02T03:40:37.118Z,9.79
2018-05-02T03:43:05.408Z,9.75
2018-05-02T03:45:33.703Z,9.77
2018-05-02T03:48:01.988Z,9.69
2018-05-02T03:50:30.701Z,9.68
2018-05-02T03:52:58.961Z,9.71
2018-05-02T03:55:28.202Z,9.74
2018-05-02T03:57:56.608Z,9.76
2018-05-02T04:00:42.741Z,9.77
2018-05-02T04:03:29.507Z,9.78
2018-05-02T04:09:07.021Z,9.81
2018-05-02T04:11:35.327Z,9.67
2018-05-02T04:14:04.519Z,9.76
2018-05-02T04:16:32.868Z,9.78
2018-05-02T04:19:01.256Z,9.72
2018-05-02T04:21:29.681Z,9.74
2018-05-02T04:23:58.245Z,9.74
2018-05-02T04:26:27.300Z,9.77
2018-05-02T04:28:55.691Z,9.80
2018-05-02T04:31:23.954Z,9.83
2018-05-02T04:33:52.492Z,9.84
2018-05-02T04:36:21.662Z,9.70
2018-05-02T04:38:51.848Z,9.79
2018-05-02T04:41:20.117Z,9.74
2018-05-02T04:43:48.392Z,9.79
2018-05-02T04:46:16.677Z,9.84
2018-05-02T04:48:44.946Z,9.83
2018-05-02T04:51:13.262Z,9.91
2018-05-02T04:53:41.591Z,9.91
2018-05-02T04:56:09.936Z,9.93
2018-05-02T04:58:39.143Z,9.94
2018-05-02T05:01:08.371Z,10.02
2018-05-02T05:03:36.744Z,10.08
2018-05-02T05:06:05.081Z,10.10
2018-05-02T05:08:34.432Z,10.19
2018-05-02T05:11:02.727Z,10.24
2018-05-02T05:13:31.018Z,10.31
2018-05-02T05:15:59.422Z,10.36
2018-05-02T05:18:28.588Z,10.38
2018-05-02T05:20:57.954Z,10.47
2018-05-02T05:23:26.303Z,10.54
2018-05-02T05:25:54.637Z,10.63
2018-05-02T05:28:23.041Z,10.70
2018-05-02T05:30:52.252Z,10.80
2018-05-02T05:33:21.392Z,10.85
2018-05-02T05:35:49.929Z,10.92
2018-05-02T05:38:19.029Z,10.96
2018-05-02T05:40:47.418Z,10.96
2018-05-02T05:43:15.709Z,10.86
2018-05-02T05:45:44.004Z,10.93
2018-05-02T05:48:12.369Z,11.01
2018-05-02T05:50:40.677Z,11.08
2018-05-02T05:53:08.967Z,11.22
2018-05-02T05:55:37.579Z,11.36
2018-05-02T05:58:06.811Z,11.38
2018-05-02T06:00:35.094Z,11.43
2018-05-02T06:03:03.483Z,11.54
2018-05-02T06:05:31.909Z,11.59
2018-05-02T06:08:00.337Z,11.74
2018-05-02T06:10:29.427Z,11.78
2018-05-02T06:12:57.742Z,11.88
2018-05-02T06:15:26.814Z,11.96
2018-05-02T06:17:55.190Z,12.07
2018-05-02T06:20:23.634Z,12.13
2018-05-02T06:22:51.937Z,12.19
2018-05-02T06:25:20.404Z,12.28
2018-05-02T06:27:48.679Z,12.38
2018-05-02T06:30:17.034Z,12.40
2018-05-02T06:32:46.119Z,12.58
2018-05-02T06:35:14.612Z,12.62
2018-05-02T06:37:43.074Z,12.74
2018-05-02T06:40:11.392Z,12.74
2018-05-02T06:42:39.668Z,12.76
2018-05-02T06:45:07.974Z,12.85
2018-05-02T06:47:36.282Z,12.91
2018-05-02T06:50:05.351Z,13.05
2018-05-02T06:52:33.659Z,13.11
2018-05-02T06:55:02.829Z,13.18
2018-05-02T06:57:31.162Z,13.22
2018-05-02T06:59:59.578Z,13.28
2018-05-02T07:02:28.910Z,13.34
2018-05-02T07:04:58.055Z,13.36
2018-05-02T07:07:26.668Z,13.47
2018-05-02T07:09:55.755Z,13.58
2018-05-02T07:12:24.135Z,13.63
2018-05-02T07:14:52.503Z,13.73
2018-05-02T07:17:20.805Z,13.79
2018-05-02T07:19:50.123Z,13.87
2018-05-02T07:22:18.471Z,13.86
2018-05-02T07:24:46.807Z,13.99
2018-05-02T07:27:15.122Z,13.99
2018-05-02T07:29:43.561Z,14.08
2018-05-02T07:32:11.903Z,14.10
2018-05-02T07:34:41.005Z,14.04
2018-05-02T07:37:10.059Z,14.08
2018-05-02T07:39:38.410Z,14.15
2018-05-02T07:42:06.734Z,14.17
2018-05-02T07:44:35.968Z,14.25
2018-05-02T07:47:04.603Z,14.29
2018-05-02T07:49:32.973Z,14.33
2018-05-02T07:52:01.293Z,14.30
2018-05-02T07:54:29.772Z,14.41
2018-05-02T07:56:58.174Z,14.46
2018-05-02T07:59:26.553Z,14.56
2018-05-02T08:01:54.919Z,14.60
2018-05-02T08:04:23.402Z,14.69
2018-05-02T08:06:51.693Z,14.80
2018-05-02T08:09:20.227Z,14.75
2018-05-02T08:11:48.592Z,14.80
2018-05-02T08:14:17.239Z,14.86
2018-05-02T08:16:45.513Z,14.87
2018-05-02T08:19:13.870Z,14.94
2018-05-02T08:21:42.193Z,15.04
2018-05-02T08:24:10.585Z,15.01
2018-05-02T08:26:39.097Z,15.15
2018-05-02T08:29:07.551Z,15.16
2018-05-02T08:31:36.060Z,15.19
2018-05-02T08:34:05.153Z,15.24
2018-05-02T08:36:34.353Z,15.15
2018-05-02T08:39:03.466Z,15.17
2018-05-02T08:41:31.909Z,15.23
2018-05-02T08:44:01.089Z,15.33
2018-05-02T08:46:29.543Z,15.53
2018-05-02T08:48:57.871Z,15.65
2018-05-02T08:51:26.414Z,15.66
2018-05-02T08:53:54.929Z,15.47
2018-05-02T08:56:23.284Z,15.29
2018-05-02T08:58:51.708Z,15.30
2018-05-02T09:01:20.144Z,15.45
2018-05-02T09:03:49.017Z,15.55
2018-05-02T09:06:18.230Z,15.64
2018-05-02T09:08:46.712Z,15.58
2018-05-02T09:11:16.014Z,15.61
2018-05-02T09:13:44.314Z,15.65
2018-05-02T09:16:13.452Z,15.69
2018-05-02T09:18:41.829Z,15.71
2018-05-02T09:21:10.443Z,15.84
2018-05-02T09:23:38.964Z,15.98
2018-05-02T09:26:08.083Z,15.98
2018-05-02T09:28:36.448Z,16.07
2018-05-02T09:31:04.735Z,16.03
2018-05-02T09:33:33.147Z,16.13
2018-05-02T09:36:01.570Z,16.04
2018-05-02T09:38:30.703Z,15.95
2018-05-02T09:40:59.038Z,16.11
2018-05-02T09:43:29.144Z,16.22
2018-05-02T09:45:57.644Z,16.30
2018-05-02T09:48:26.719Z,16.41
2018-05-02T09:50:55.193Z,16.54
2018-05-02T09:53:23.555Z,16.48
2018-05-02T09:55:51.850Z,16.33
2018-05-02T09:58:20.286Z,16.40
2018-05-02T10:00:48.654Z,16.34
2018-05-02T10:03:16.983Z,16.16
2018-05-02T10:05:45.498Z,16.12
2018-05-02T10:08:13.959Z,16.09
2018-05-02T10:10:42.324Z,16.23
2018-05-02T10:13:10.710Z,16.24
2018-05-02T10:15:40.931Z,16.31
2018-05-02T10:18:10.015Z,16.38
2018-05-02T10:20:38.349Z,16.41
2018-05-02T10:23:06.659Z,16.57
2018-05-02T10:25:34.953Z,16.60
2018-05-02T10:28:03.337Z,16.65
2018-05-02T10:30:32.435Z,16.76
2018-05-02T10:33:01.632Z,16.86
2018-05-02T10:35:30.690Z,16.88
2018-05-02T10:37:59.038Z,16.84
2018-05-02T10:40:27.368Z,16.95
2018-05-02T10:42:55.680Z,17.03
2018-05-02T10:45:24.095Z,17.02
2018-05-02T10:47:52.419Z,16.98
2018-05-02T10:50:21.713Z,17.06
2018-05-02T10:52:50.283Z,17.22
2018-05-02T10:55:18.696Z,17.40
2018-05-02T10:57:47.812Z,17.42
2018-05-02T11:00:16.306Z,17.43
2018-05-02T11:02:44.588Z,17.53
2018-05-02T11:05:13.124Z,17.61
2018-05-02T11:07:42.221Z,17.70
2018-05-02T11:10:11.490Z,17.81
2018-05-02T11:12:39.948Z,17.91
2018-05-02T11:15:08.301Z,17.90
2018-05-02T11:17:36.677Z,17.91
2018-05-02T11:20:04.974Z,18.01
2018-05-02T11:22:33.319Z,18.10
2018-05-02T11:25:02.429Z,18.11
2018-05-02T11:27:30.768Z,18.25
2018-05-02T11:29:59.104Z,18.34
2018-05-02T11:32:27.409Z,18.50
2018-05-02T11:34:55.814Z,18.59
2018-05-02T11:37:24.891Z,18.69
2018-05-02T11:39:53.258Z,18.79
2018-05-02T11:42:21.569Z,18.85
2018-05-02T11:44:50.879Z,19.01
2018-05-02T11:47:19.384Z,19.03
2018-05-02T11:49:47.740Z,19.18
2018-05-02T11:52:16.028Z,19.17
2018-05-02T11:54:44.341Z,19.11
2018-05-02T11:57:12.664Z,19.03
2018-05-02T11:59:41.021Z,19.03
2018-05-02T12:02:10.129Z,19.10
2018-05-02T12:04:39.370Z,19.18
2018-05-02T12:07:07.779Z,19.30
2018-05-02T12:09:36.115Z,19.28
2018-05-02T12:12:04.511Z,19.39
2018-05-02T12:14:33.060Z,19.57
2018-05-02T12:17:01.399Z,19.66
2018-05-02T12:19:29.900Z,19.77
2018-05-02T12:21:59.048Z,19.83
2018-05-02T12:24:28.085Z,19.79
2018-05-02T12:26:57.465Z,19.66
2018-05-02T12:29:25.823Z,19.75
2018-05-02T12:31:54.260Z,19.89
2018-05-02T12:34:22.660Z,19.93
2018-05-02T12:36:51.159Z,19.95
2018-05-02T12:39:19.455Z,20.07
2018-05-02T12:41:47.900Z,20.13
2018-05-02T12:44:16.193Z,20.20
2018-05-02T12:46:44.568Z,20.19
2018-05-02T12:49:13.301Z,20.16
2018-05-02T12:51:41.674Z,20.40
2018-05-02T12:54:10.889Z,20.38
2018-05-02T12:56:40.039Z,20.24
2018-05-02T12:59:08.331Z,20.29
2018-05-02T13:01:36.839Z,20.32
2018-05-02T13:04:06.026Z,20.53
2018-05-02T13:06:35.146Z,20.71
2018-05-02T13:09:03.445Z,20.87
2018-05-02T13:11:31.898Z,20.89
2018-05-02T13:14:00.288Z,20.81
2018-05-02T13:16:29.848Z,20.75
2018-05-02T13:18:58.376Z,20.66
2018-05-02T13:21:26.691Z,20.44
2018-05-02T13:23:55.275Z,20.43
2018-05-02T13:26:23.700Z,20.58
2018-05-02T13:28:52.251Z,20.75
2018-05-02T13:31:22.100Z,20.68
2018-05-02T13:33:50.666Z,20.69
2018-05-02T13:36:19.884Z,20.82
2018-05-02T13:38:48.236Z,20.92
2018-05-02T13:41:17.403Z,20.93
2018-05-02T13:43:45.737Z,20.96
2018-05-02T13:46:14.156Z,20.87
2018-05-02T13:48:42.445Z,20.77
2018-05-02T13:51:11.670Z,20.86
2018-05-02T13:53:40.853Z,20.89
2018-05-02T13:56:10.007Z,20.90
2018-05-02T13:58:38.471Z,21.02
2018-05-02T14:01:06.979Z,21.09
2018-05-02T14:03:35.317Z,21.18
2018-05-02T14:06:03.624Z,21.23
2018-05-02T14:08:32.018Z,21.36
2018-05-02T14:11:00.296Z,21.54
2018-05-02T14:13:28.650Z,21.66
2018-05-02T14:15:57.028Z,21.83
2018-05-02T14:18:25.309Z,21.99
2018-05-02T14:20:53.660Z,21.99
2018-05-02T14:23:22.145Z,21.83
2018-05-02T14:25:50.541Z,21.83
2018-05-02T14:28:19.009Z,21.70
2018-05-02T14:30:47.339Z,21.74
2018-05-02T14:33:15.686Z,21.82
2018-05-02T14:35:43.981Z,21.98
2018-05-02T14:38:12.478Z,21.97
2018-05-02T14:40:40.858Z,22.07
2018-05-02T14:43:09.274Z,22.01
2018-05-02T14:45:37.604Z,21.84
2018-05-02T14:48:07.725Z,21.91
2018-05-02T14:50:36.116Z,21.92
2018-05-02T14:53:04.541Z,21.94
2018-05-02T14:55:33.004Z,21.89
2018-05-02T14:58:01.561Z,22.01
2018-05-02T15:00:30.681Z,22.10
2018-05-02T15:02:59.114Z,22.35
2018-05-02T15:05:27.688Z,22.47
2018-05-02T15:07:56.155Z,22.47
2018-05-02T15:10:24.811Z,22.46
2018-05-02T15:12:53.181Z,22.48
2018-05-02T15:15:22.310Z,22.50
2018-05-02T15:17:50.710Z,22.31
2018-05-02T15:20:19.316Z,22.22
2018-05-02T15:22:47.640Z,22.32
2018-05-02T15:25:16.423Z,22.42
2018-05-02T15:27:44.782Z,22.60
2018-05-02T15:30:13.919Z,22.58
2018-05-02T15:32:42.395Z,22.53
2018-05-02T15:35:10.797Z,22.65
2018-05-02T15:37:39.135Z,22.93
2018-05-02T15:40:07.702Z,23.37
2018-05-02T15:42:36.847Z,23.81
2018-05-02T15:45:05.188Z,23.76
2018-05-02T15:47:33.571Z,23.91
2018-05-02T15:50:01.870Z,24.31
2018-05-02T15:52:31.664Z,24.32
2018-05-02T15:55:00.121Z,24.43
2018-05-02T15:57:28.461Z,24.57
2018-05-02T15:59:56.780Z,24.85
2018-05-02T16:02:26.007Z,24.82
2018-05-02T16:04:54.383Z,24.88
2018-05-02T16:07:22.725Z,24.94
2018-05-02T16:09:52.031Z,25.31
2018-05-02T16:12:21.969Z,25.86
2018-05-02T16:14:50.805Z,25.60
2018-05-02T16:17:19.142Z,25.67
2018-05-02T16:19:47.743Z,25.58
2018-05-02T16:22:16.200Z,25.71
2018-05-02T16:24:44.750Z,25.47
2018-05-02T16:27:14.105Z,24.89
2018-05-02T16:29:42.478Z,24.54
2018-05-02T16:32:14.773Z,24.83
2018-05-02T16:34:43.142Z,25.14
2018-05-02T16:37:11.625Z,24.91
2018-05-02T16:39:41.414Z,24.22
2018-05-02T16:42:09.801Z,23.81
2018-05-02T16:44:38.124Z,23.49
2018-05-02T16:47:07.230Z,22.98
2018-05-02T16:49:36.372Z,22.91
2018-05-02T16:52:04.772Z,22.76
2018-05-02T16:54:33.171Z,22.75
2018-05-02T16:57:01.696Z,22.67
2018-05-02T16:59:30.064Z,22.58
2018-05-02T17:02:00.487Z,22.80
2018-05-02T17:04:29.056Z,22.94
2018-05-02T17:06:57.354Z,23.23
2018-05-02T17:09:26.054Z,23.20
2018-05-02T17:11:54.326Z,23.28
2018-05-02T17:14:22.675Z,23.27
2018-05-02T17:16:51.282Z,23.13
2018-05-02T17:19:20.597Z,22.88
2018-05-02T17:21:49.182Z,22.58
2018-05-02T17:24:18.022Z,22.28
2018-05-02T17:26:46.670Z,21.98
2018-05-02T17:29:15.053Z,21.75
2018-05-02T17:31:43.537Z,21.75
2018-05-02T17:34:11.906Z,21.93
2018-05-02T17:36:40.744Z,21.66
2018-05-02T17:39:09.172Z,21.38
2018-05-02T17:41:37.631Z,20.97
2018-05-02T17:44:06.260Z,20.53
2018-05-02T17:46:34.796Z,20.33
2018-05-02T17:49:03.270Z,20.05
2018-05-02T17:51:31.958Z,19.87
2018-05-02T17:54:00.375Z,19.70
2018-05-02T17:56:29.112Z,19.52
2018-05-02T17:58:57.696Z,19.43
2018-05-02T18:01:26.207Z,19.35
2018-05-02T18:03:54.642Z,19.28
2018-05-02T18:06:23.970Z,19.15
2018-05-02T18:08:52.335Z,19.04
2018-05-02T18:11:20.916Z,19.03
2018-05-02T18:13:56.085Z,18.97
2018-05-02T18:16:24.441Z,18.97
2018-05-02T18:18:52.915Z,18.81
2018-05-02T18:21:21.755Z,18.67
2018-05-02T18:23:50.087Z,18.55
2018-05-02T18:26:18.451Z,18.46
2018-05-02T18:28:47.658Z,18.38
2018-05-02T18:31:16.178Z,18.33
2018-05-02T18:33:44.716Z,18.33
2018-05-02T18:36:13.273Z,18.29
2018-05-02T18:38:43.197Z,18.20
2018-05-02T18:41:12.437Z,18.22
2018-05-02T18:43:40.998Z,18.20
2018-05-02T18:46:09.521Z,18.23
2018-05-02T18:48:37.898Z,18.20
2018-05-02T18:51:06.425Z,18.02
2018-05-02T18:53:35.638Z,17.95
2018-05-02T18:56:03.964Z,17.88
2018-05-02T18:58:32.335Z,17.83
2018-05-02T19:01:01.571Z,17.83
2018-05-02T19:03:30.203Z,17.84
2018-05-02T19:05:58.800Z,17.80
2018-05-02T19:08:27.238Z,17.76
2018-05-02T19:10:55.945Z,17.69
2018-05-02T19:13:24.451Z,17.60
2018-05-02T19:15:53.040Z,17.57
2018-05-02T19:18:27.040Z,17.61
2018-05-02T19:20:55.386Z,17.57
2018-05-02T19:23:23.759Z,17.58
2018-05-02T19:25:57.568Z,17.55
2018-05-02T19:28:25.977Z,17.62
2018-05-02T19:31:00.086Z,17.55
2018-05-02T19:33:34.025Z,17.48
2018-05-02T19:36:02.398Z,17.32
2018-05-02T19:38:30.794Z,17.34
2018-05-02T19:41:05.408Z,17.30
2018-05-02T19:43:39.262Z,17.28
2018-05-02T19:46:07.743Z,17.31
2018-05-02T19:48:36.213Z,17.27
2018-05-02T19:51:11.095Z,17.17
2018-05-02T19:53:39.421Z,17.21
2018-05-02T19:56:08.770Z,17.18
2018-05-02T19:58:37.235Z,17.12
2018-05-02T20:01:11.159Z,17.03
2018-05-02T20:03:39.816Z,17.04
2018-05-02T20:06:08.237Z,16.97
2018-05-02T20:08:42.171Z,17.00
2018-05-02T20:11:16.150Z,17.02
2018-05-02T20:13:50.355Z,16.96
2018-05-02T20:16:18.779Z,16.92
2018-05-02T20:18:47.501Z,16.91
2018-05-02T20:21:15.933Z,16.86
2018-05-02T20:23:44.363Z,16.98
2018-05-02T20:26:12.849Z,16.83
2018-05-02T20:28:41.198Z,16.80
2018-05-02T20:31:09.516Z,16.74
2018-05-02T20:33:37.881Z,16.75
2018-05-02T20:36:08.172Z,16.70
2018-05-02T20:38:38.499Z,16.61
2018-05-02T20:41:06.878Z,16.63
2018-05-02T20:43:35.682Z,16.60
2018-05-02T20:46:04.055Z,16.53
2018-05-02T20:48:32.410Z,16.60
2018-05-02T20:51:01.479Z,16.59
2018-05-02T20:53:29.843Z,16.57
2018-05-02T20:55:58.193Z,16.60
2018-05-02T20:58:26.572Z,16.62
2018-05-02T21:00:55.258Z,16.57
2018-05-02T21:03:23.613Z,16.58
2018-05-02T21:05:52.010Z,16.59
2018-05-02T21:08:21.303Z,16.42
2018-05-02T21:10:49.821Z,16.37
2018-05-02T21:13:18.324Z,16.26
2018-05-02T21:15:46.698Z,16.33
2018-05-02T21:18:15.055Z,16.20
2018-05-02T21:20:43.410Z,16.19
2018-05-02T21:23:11.901Z,16.24
2018-05-02T21:25:40.441Z,16.23
2018-05-02T21:28:09.566Z,16.17
2018-05-02T21:30:38.119Z,16.14
2018-05-02T21:33:07.202Z,16.07
2018-05-02T21:35:36.541Z,16.13
2018-05-02T21:38:04.967Z,16.08
2018-05-02T21:40:33.498Z,16.09
2018-05-02T21:43:02.031Z,16.02
2018-05-02T21:45:30.473Z,16.05
2018-05-02T21:47:58.818Z,15.92
2018-05-02T21:50:27.922Z,15.88
2018-05-02T21:52:56.257Z,15.93
2018-05-02T21:55:24.667Z,15.96
2018-05-02T21:57:53.760Z,15.87
2018-05-02T22:00:22.881Z,15.88
2018-05-02T22:02:51.276Z,15.76
2018-05-02T22:05:19.694Z,15.73
2018-05-02T22:07:48.052Z,15.76
2018-05-02T22:10:16.346Z,15.72
2018-05-02T22:12:45.021Z,15.70
2018-05-02T22:15:13.360Z,15.66
2018-05-02T22:17:41.661Z,15.63
2018-05-02T22:20:10.093Z,15.66
2018-05-02T22:22:38.576Z,15.68
2018-05-02T22:25:07.927Z,15.74
2018-05-02T22:27:36.317Z,15.79
2018-05-02T22:30:04.645Z,15.74
2018-05-02T22:32:32.939Z,15.65
2018-05-02T22:35:01.282Z,15.60
2018-05-02T22:37:30.341Z,15.64
2018-05-02T22:39:58.672Z,15.52
2018-05-02T22:42:27.013Z,15.41
2018-05-02T22:44:55.367Z,15.57
2018-05-02T22:47:23.739Z,15.48
2018-05-02T22:49:52.022Z,15.52
2018-05-02T22:52:20.462Z,15.43
2018-05-02T22:54:49.063Z,15.56
2018-05-02T22:57:17.371Z,15.50
2018-05-02T22:59:45.849Z,15.45
2018-05-02T23:02:14.187Z,15.27
2018-05-02T23:04:42.552Z,15.36
2018-05-02T23:07:10.838Z,15.22
2018-05-02T23:09:39.149Z,15.17
2018-05-02T23:12:07.740Z,15.15
2018-05-02T23:14:36.050Z,14.99
2018-05-02T23:17:04.457Z,14.97
2018-05-02T23:19:33.016Z,14.80
2018-05-02T23:22:02.149Z,14.74
2018-05-02T23:24:30.622Z,14.54
2018-05-02T23:26:59.156Z,14.61
2018-05-02T23:29:27.481Z,14.78
2018-05-02T23:31:55.772Z,14.84
2018-05-02T23:34:24.123Z,14.85
2018-05-02T23:36:52.495Z,14.93
2018-05-02T23:39:20.824Z,14.72
2018-05-02T23:41:49.988Z,14.64
2018-05-02T23:44:18.291Z,14.67
2018-05-02T23:46:46.738Z,14.69
2018-05-02T23:49:15.029Z,14.70
2018-05-02T23:51:43.551Z,14.62
2018-05-02T23:54:11.942Z,14.70
2018-05-02T23:56:41.158Z,14.65
2018-05-02T23:59:09.460Z,14.69
